Accueil
METAR-TAF:

METAR-TAF

Aéroports :

Nanaimo, Colombie-Britannique, Canada

latitude: 49-03N, longitude: 123-52W, altitude: 28 m

Observation

Le bulletin a été fait il y a 49 minutes, à 13:00 UTC
Vent calme
Température 3°C
Humidité 93%
Pression 1010 hPa
Visibilité: 32.2 km
Ciel clair
Brouillard mince

METAR: CYCD 231300Z 00000KT 20SM MIFG SKC 03/02 A2983 RMK SLP104

Heure: 06:49 (13:49 UTC)

Prévision

Le bulletin a été fait il y a 14 heures et 11 minutes, à 23:38 UTC
Prévision valable du 23 à 00 UTC au 23 à 04 UTC
Vent 3 kt de direction variable
Visibilité: 10 km
Quelques nuages à une hauteur de 23000 ft

TAF: CYCD 222338Z 2300/2304 VRB03KT P6SM FEW230 RMK NXT FCST WILL BE ISSUED AT 231445Z

Observations et prévisions météorologiques de plus de 4000 aéroports (messages METAR et TAF).

Les stations disponibles sont représentées par des disques jaunes et rouges sur la carte.

Passer la souris dessus pour voir le nom de la station.

Cliquer dessus pour voir les observations et prévisions météorologiques.

Pour changer de carte: cliquez sur les boutons verts avec une croix noire pour zoomer, sur le bouton vert avec un tiret pour effectuer un zoom arrière, ou sur les flèches vertes pour les cartes adjacentes.


METAR-TAF: